createdAt,value
2023-05-23T00:01:02.230Z,10.80
2023-05-23T00:03:31.438Z,10.35
2023-05-23T00:05:59.007Z,7.47
2023-05-23T00:08:25.977Z,10.90
2023-05-23T00:10:52.534Z,7.65
2023-05-23T00:13:19.077Z,8.23
2023-05-23T00:15:45.566Z,7.78
2023-05-23T00:18:12.528Z,10.40
2023-05-23T00:20:42.713Z,10.13
2023-05-23T00:23:10.445Z,12.23
2023-05-23T00:25:38.134Z,12.10
2023-05-23T00:28:05.371Z,9.40
2023-05-23T00:30:33.881Z,14.10
2023-05-23T00:33:00.769Z,8.05
2023-05-23T00:35:27.900Z,10.45
2023-05-23T00:37:55.607Z,8.65
2023-05-23T00:40:23.230Z,9.93
2023-05-23T00:42:49.904Z,10.43
2023-05-23T00:45:18.275Z,7.57
2023-05-23T00:47:45.628Z,10.93
2023-05-23T00:50:17.894Z,7.63
2023-05-23T00:52:46.301Z,10.43
2023-05-23T00:55:13.402Z,9.93
2023-05-23T00:57:41.657Z,7.63
2023-05-23T01:00:12.089Z,8.43
2023-05-23T01:02:47.155Z,8.65
2023-05-23T01:05:17.659Z,9.35
2023-05-23T01:07:45.638Z,9.38
2023-05-23T01:10:13.651Z,11.40
2023-05-23T01:12:58.146Z,12.90
2023-05-23T01:15:32.967Z,9.77
2023-05-23T01:18:08.520Z,9.63
2023-05-23T01:20:41.618Z,8.93
2023-05-23T01:23:41.293Z,9.52
2023-05-23T01:26:32.881Z,15.80
2023-05-23T01:29:10.087Z,9.73
2023-05-23T01:31:46.902Z,9.38
2023-05-23T01:34:14.542Z,12.20
2023-05-23T01:36:42.984Z,9.02
2023-05-23T01:39:10.547Z,10.23
2023-05-23T01:41:37.252Z,9.32
2023-05-23T01:44:04.773Z,10.98
2023-05-23T01:46:33.844Z,11.80
2023-05-23T01:49:03.190Z,9.07
2023-05-23T01:51:30.657Z,7.80
2023-05-23T01:53:57.787Z,6.30
2023-05-23T01:56:25.032Z,7.95
2023-05-23T01:58:51.721Z,12.63
2023-05-23T02:01:18.660Z,8.88
2023-05-23T02:03:45.339Z,13.32
2023-05-23T02:06:12.051Z,7.68
2023-05-23T02:08:38.781Z,8.55
2023-05-23T02:11:05.572Z,9.55
2023-05-23T02:13:32.038Z,20.75
2023-05-23T02:15:58.484Z,8.13
2023-05-23T02:18:26.196Z,7.63
2023-05-23T02:20:52.764Z,8.05
2023-05-23T02:23:19.238Z,8.55
2023-05-23T02:25:45.816Z,7.57
2023-05-23T02:28:12.966Z,11.20
2023-05-23T02:30:39.750Z,7.10
2023-05-23T02:33:06.933Z,8.32
2023-05-23T02:35:34.304Z,9.73
2023-05-23T02:38:00.948Z,10.82
2023-05-23T02:40:27.474Z,8.00
2023-05-23T02:42:57.140Z,11.10
2023-05-23T02:45:24.447Z,10.85
2023-05-23T02:47:51.294Z,7.53
2023-05-23T02:50:17.884Z,10.00
2023-05-23T02:52:44.951Z,7.47
2023-05-23T02:55:11.542Z,9.05
2023-05-23T02:57:38.025Z,11.00
2023-05-23T03:00:04.915Z,7.95
2023-05-23T03:02:31.574Z,7.38
2023-05-23T03:04:58.214Z,8.85
2023-05-23T03:07:28.501Z,10.60
2023-05-23T03:09:56.093Z,9.02
2023-05-23T03:12:22.681Z,8.90
2023-05-23T03:14:49.195Z,8.32
2023-05-23T03:17:16.208Z,8.27
2023-05-23T03:19:42.797Z,9.25
2023-05-23T03:22:09.359Z,8.45
2023-05-23T03:24:35.919Z,8.80
2023-05-23T03:27:03.099Z,9.57
2023-05-23T03:29:29.705Z,8.98
2023-05-23T03:31:56.309Z,10.55
2023-05-23T03:34:23.877Z,11.57
2023-05-23T03:36:50.978Z,9.48
2023-05-23T03:39:17.534Z,10.27
2023-05-23T03:41:44.131Z,18.75
2023-05-23T03:44:10.804Z,7.35
2023-05-23T03:46:38.322Z,11.75
2023-05-23T03:49:05.860Z,13.52
2023-05-23T03:51:32.394Z,9.10
2023-05-23T03:53:58.952Z,9.27
2023-05-23T03:56:26.310Z,9.30
2023-05-23T03:58:53.062Z,15.13
2023-05-23T04:01:19.624Z,11.38
2023-05-23T04:03:46.504Z,6.88
2023-05-23T04:06:14.395Z,8.32
2023-05-23T04:08:42.101Z,8.63
2023-05-23T04:11:08.786Z,10.82
2023-05-23T04:13:35.613Z,8.35
2023-05-23T04:16:05.702Z,9.23
2023-05-23T04:18:39.045Z,11.67
2023-05-23T04:21:05.840Z,9.73
2023-05-23T04:23:32.382Z,14.23
2023-05-23T04:25:59.282Z,12.45
2023-05-23T04:28:27.792Z,5.93
2023-05-23T04:30:54.378Z,9.55
2023-05-23T04:33:21.667Z,9.27
2023-05-23T04:35:49.398Z,10.13
2023-05-23T04:38:15.942Z,14.02
2023-05-23T04:40:42.738Z,8.23
2023-05-23T04:43:10.154Z,8.05
2023-05-23T04:45:36.725Z,9.68
2023-05-23T04:48:03.764Z,8.48
2023-05-23T04:50:33.160Z,8.77
2023-05-23T04:52:59.755Z,11.50
2023-05-23T04:55:26.578Z,11.02
2023-05-23T04:57:53.234Z,9.52
2023-05-23T05:00:20.413Z,10.43
2023-05-23T05:02:47.010Z,11.45
2023-05-23T05:05:13.514Z,8.57
2023-05-23T05:07:40.393Z,8.50
2023-05-23T05:10:07.423Z,11.95
2023-05-23T05:12:34.464Z,10.80
2023-05-23T05:15:03.335Z,10.75
2023-05-23T05:17:30.260Z,10.35
2023-05-23T05:19:56.934Z,9.57
2023-05-23T05:22:23.922Z,11.43
2023-05-23T05:24:50.390Z,13.88
2023-05-23T05:27:16.964Z,7.05
2023-05-23T05:29:44.020Z,10.52
2023-05-23T05:32:10.523Z,11.57
2023-05-23T05:34:37.794Z,7.85
2023-05-23T05:37:04.762Z,11.45
2023-05-23T05:39:31.193Z,7.20
2023-05-23T05:41:57.670Z,10.98
2023-05-23T05:44:24.155Z,10.65
2023-05-23T05:46:51.675Z,8.90
2023-05-23T05:49:18.459Z,8.70
2023-05-23T05:51:44.939Z,9.38
2023-05-23T05:54:11.453Z,11.88
2023-05-23T05:56:37.994Z,7.57
2023-05-23T05:59:04.550Z,8.25
2023-05-23T06:01:31.037Z,13.55
2023-05-23T06:03:58.544Z,7.90
2023-05-23T06:06:25.354Z,18.23
2023-05-23T06:08:52.068Z,12.60
2023-05-23T06:11:18.609Z,21.58
2023-05-23T06:13:45.341Z,9.77
2023-05-23T06:16:12.038Z,16.50
2023-05-23T06:18:38.617Z,10.65
2023-05-23T06:21:05.124Z,18.05
2023-05-23T06:23:31.649Z,15.27
2023-05-23T06:25:59.303Z,10.30
2023-05-23T06:28:25.916Z,14.77
2023-05-23T06:30:52.377Z,21.45
2023-05-23T06:33:18.901Z,11.43
2023-05-23T06:35:45.352Z,8.55
2023-05-23T06:38:11.909Z,8.38
2023-05-23T06:40:38.476Z,11.05
2023-05-23T06:43:05.047Z,9.93
2023-05-23T06:45:31.596Z,10.30
2023-05-23T06:48:00.008Z,10.70
2023-05-23T06:50:26.552Z,17.27
2023-05-23T06:52:53.061Z,14.35
2023-05-23T06:55:20.394Z,10.02
2023-05-23T06:57:47.281Z,11.13
2023-05-23T07:00:14.304Z,8.65
2023-05-23T07:02:41.062Z,10.85
2023-05-23T07:05:08.083Z,15.70
2023-05-23T07:07:34.687Z,10.93
2023-05-23T07:10:01.310Z,11.98
2023-05-23T07:12:27.802Z,8.05
2023-05-23T07:14:54.277Z,7.47
2023-05-23T07:17:20.833Z,13.63
2023-05-23T07:19:47.448Z,7.05
2023-05-23T07:22:13.948Z,15.60
2023-05-23T07:24:40.508Z,11.93
2023-05-23T07:27:06.987Z,11.70
2023-05-23T07:29:33.501Z,12.35
2023-05-23T07:32:00.011Z,11.73
2023-05-23T07:34:29.148Z,14.48
2023-05-23T07:36:55.813Z,11.25
2023-05-23T07:39:24.257Z,9.32
2023-05-23T07:41:51.014Z,15.93
2023-05-23T07:44:20.723Z,19.52
2023-05-23T07:46:48.966Z,19.33
2023-05-23T07:49:15.585Z,14.27
2023-05-23T07:51:42.127Z,8.88
2023-05-23T07:54:08.782Z,10.38
2023-05-23T07:56:35.428Z,18.42
2023-05-23T07:59:02.270Z,12.43
2023-05-23T08:01:29.488Z,13.95
2023-05-23T08:03:56.197Z,14.25
2023-05-23T08:06:22.780Z,8.30
2023-05-23T08:08:49.416Z,9.75
2023-05-23T08:11:16.051Z,8.55
2023-05-23T08:13:42.557Z,8.70
2023-05-23T08:16:09.186Z,9.18
2023-05-23T08:18:36.354Z,10.30
2023-05-23T08:21:03.624Z,12.15
2023-05-23T08:23:30.219Z,8.77
2023-05-23T08:25:57.541Z,14.13
2023-05-23T08:28:24.085Z,11.40
2023-05-23T08:30:51.809Z,12.23
2023-05-23T08:33:18.357Z,15.18
2023-05-23T08:35:44.921Z,13.77
2023-05-23T08:38:11.464Z,10.30
2023-05-23T08:40:40.181Z,13.45
2023-05-23T08:43:07.080Z,15.30
2023-05-23T08:45:34.720Z,11.10
2023-05-23T08:48:04.385Z,16.08
2023-05-23T08:50:30.996Z,13.13
2023-05-23T08:52:59.298Z,17.25
2023-05-23T08:55:27.685Z,11.57
2023-05-23T08:57:55.169Z,10.45
2023-05-23T09:00:23.308Z,14.68
2023-05-23T09:02:50.059Z,13.27
2023-05-23T09:05:17.004Z,11.27
2023-05-23T09:07:49.399Z,14.70
2023-05-23T09:10:20.260Z,11.82
2023-05-23T09:12:47.380Z,11.35
2023-05-23T09:15:14.710Z,11.63
2023-05-23T09:17:41.558Z,14.75
2023-05-23T09:20:16.365Z,21.98
2023-05-23T09:22:50.608Z,17.92
2023-05-23T09:25:17.209Z,23.02
2023-05-23T09:27:46.737Z,13.48
2023-05-23T09:30:15.259Z,18.70
2023-05-23T09:32:42.320Z,13.32
2023-05-23T09:35:13.837Z,16.15
2023-05-23T09:37:46.841Z,17.52
2023-05-23T09:40:14.783Z,17.90
2023-05-23T09:42:48.580Z,19.10
2023-05-23T09:45:17.131Z,18.50
2023-05-23T09:47:54.397Z,20.77
2023-05-23T09:50:21.628Z,21.25
2023-05-23T09:52:48.495Z,23.90
2023-05-23T09:55:15.245Z,22.73
2023-05-23T09:57:43.709Z,28.08
2023-05-23T10:00:12.428Z,27.60
2023-05-23T10:02:51.070Z,28.40
2023-05-23T10:05:31.088Z,32.08
2023-05-23T10:08:01.936Z,27.73
2023-05-23T10:10:32.643Z,25.40
2023-05-23T10:13:06.254Z,29.90
2023-05-23T10:15:40.221Z,29.27
2023-05-23T10:18:12.635Z,30.30
2023-05-23T10:20:41.966Z,29.42
2023-05-23T10:23:08.994Z,29.92
2023-05-23T10:25:37.214Z,30.05
2023-05-23T10:28:05.081Z,30.95
2023-05-23T10:30:32.178Z,25.73
2023-05-23T10:33:00.245Z,29.17
2023-05-23T10:36:02.477Z,32.08
2023-05-23T10:38:44.213Z,36.88
2023-05-23T10:41:13.783Z,28.38
2023-05-23T10:44:10.080Z,27.05
2023-05-23T10:46:55.251Z,30.38
2023-05-23T10:49:22.774Z,28.27
2023-05-23T10:51:53.867Z,29.02
2023-05-23T10:54:21.172Z,25.52
2023-05-23T10:57:03.021Z,29.45
2023-05-23T10:59:29.868Z,25.15
2023-05-23T11:01:56.871Z,27.00
2023-05-23T11:04:28.027Z,29.48
2023-05-23T11:09:22.417Z,28.85
2023-05-23T11:11:54.807Z,23.98
2023-05-23T11:14:40.880Z,23.55
2023-05-23T11:17:13.243Z,25.23
2023-05-23T11:19:40.503Z,25.95
2023-05-23T11:22:09.963Z,26.33
2023-05-23T11:24:52.823Z,24.13
2023-05-23T11:27:31.407Z,28.50
2023-05-23T11:30:04.401Z,20.90
2023-05-23T11:32:31.871Z,20.63
2023-05-23T11:35:07.241Z,25.63
2023-05-23T11:37:34.462Z,21.10
2023-05-23T11:40:26.854Z,23.83
2023-05-23T11:42:57.471Z,22.30
2023-05-23T11:45:25.089Z,21.52
2023-05-23T11:47:52.120Z,23.10
2023-05-23T11:50:20.618Z,22.70
2023-05-23T11:52:51.565Z,20.02
2023-05-23T11:57:46.607Z,21.15
2023-05-23T12:00:14.080Z,29.17
2023-05-23T12:02:42.583Z,16.30
2023-05-23T12:05:10.915Z,19.55
2023-05-23T12:07:48.341Z,21.17
2023-05-23T12:10:22.356Z,19.23
2023-05-23T12:12:51.611Z,23.52
2023-05-23T12:15:18.174Z,19.15
2023-05-23T12:17:46.428Z,21.70
2023-05-23T12:20:13.551Z,17.83
2023-05-23T12:22:40.341Z,19.75
2023-05-23T12:25:09.137Z,23.05
2023-05-23T12:27:37.167Z,20.33
2023-05-23T12:30:16.723Z,19.50
2023-05-23T12:32:45.273Z,19.98
2023-05-23T12:35:14.308Z,18.52
2023-05-23T12:37:42.854Z,18.25
2023-05-23T12:40:16.595Z,21.77
2023-05-23T12:42:56.736Z,18.27
2023-05-23T12:45:36.436Z,19.35
2023-05-23T12:48:07.382Z,16.38
2023-05-23T12:53:00.722Z,19.23
2023-05-23T12:55:27.220Z,24.95
2023-05-23T12:57:53.750Z,22.30
2023-05-23T13:00:21.707Z,24.20
2023-05-23T13:02:49.358Z,18.92
2023-05-23T13:05:16.154Z,22.83
2023-05-23T13:07:42.777Z,26.58
2023-05-23T13:10:10.150Z,25.35
2023-05-23T13:12:36.985Z,22.88
2023-05-23T13:15:04.303Z,28.90
2023-05-23T13:17:30.864Z,26.98
2023-05-23T13:19:57.525Z,31.45
2023-05-23T13:22:24.057Z,48.10
2023-05-23T13:24:50.730Z,29.52
2023-05-23T13:27:18.163Z,25.65
2023-05-23T13:29:44.775Z,32.38
2023-05-23T13:32:11.338Z,35.35
2023-05-23T13:34:37.900Z,30.17
2023-05-23T13:37:05.553Z,31.27
2023-05-23T13:39:32.258Z,32.00
2023-05-23T13:41:58.933Z,33.38
2023-05-23T13:44:25.541Z,33.38
2023-05-23T13:46:52.203Z,29.85
2023-05-23T13:49:18.780Z,32.65
2023-05-23T13:51:45.463Z,33.15
2023-05-23T13:54:13.311Z,34.55
2023-05-23T13:56:40.374Z,39.95
2023-05-23T13:59:06.989Z,32.85
2023-05-23T14:01:33.911Z,35.00
2023-05-23T14:04:00.759Z,30.33
2023-05-23T14:06:27.436Z,47.05
2023-05-23T14:08:54.138Z,32.90
2023-05-23T14:11:20.825Z,28.58
2023-05-23T14:13:47.439Z,26.10
2023-05-23T14:16:14.357Z,27.27
2023-05-23T14:18:41.148Z,25.38
2023-05-23T14:21:07.789Z,28.25
2023-05-23T14:23:34.357Z,23.38
2023-05-23T14:26:01.077Z,26.98
2023-05-23T14:28:27.672Z,28.48
2023-05-23T14:30:55.607Z,26.83
2023-05-23T14:33:22.273Z,25.70
2023-05-23T14:35:49.392Z,25.63
2023-05-23T14:38:16.246Z,30.30
2023-05-23T14:40:43.975Z,17.33
2023-05-23T14:43:11.521Z,20.40
2023-05-23T14:45:38.390Z,19.08
2023-05-23T14:48:06.071Z,40.15
2023-05-23T14:50:32.668Z,24.30
2023-05-23T14:52:59.778Z,16.42
2023-05-23T14:55:26.391Z,21.02
2023-05-23T14:57:52.901Z,19.38
2023-05-23T15:00:19.668Z,20.25
2023-05-23T15:02:46.691Z,17.65
2023-05-23T15:05:13.981Z,20.33
2023-05-23T15:07:40.592Z,21.90
2023-05-23T15:10:08.404Z,15.25
2023-05-23T15:12:34.985Z,19.50
2023-05-23T15:15:04.841Z,15.25
2023-05-23T15:17:33.527Z,15.90
2023-05-23T15:20:00.660Z,10.82
2023-05-23T15:22:36.656Z,14.32
2023-05-23T15:25:06.741Z,15.23
2023-05-23T15:27:33.317Z,13.10
2023-05-23T15:29:59.875Z,11.43
2023-05-23T15:32:26.556Z,15.10
2023-05-23T15:34:53.282Z,15.35
2023-05-23T15:37:19.980Z,19.58
2023-05-23T15:39:46.974Z,12.57
2023-05-23T15:42:13.516Z,10.60
2023-05-23T15:44:40.025Z,11.13
2023-05-23T15:47:06.682Z,13.95
2023-05-23T15:49:33.240Z,14.13
2023-05-23T15:51:59.849Z,11.95
2023-05-23T15:54:26.541Z,14.65
2023-05-23T15:56:53.275Z,9.82
2023-05-23T15:59:19.934Z,10.68
2023-05-23T16:01:46.718Z,14.65
2023-05-23T16:04:13.476Z,11.93
2023-05-23T16:06:40.198Z,11.10
2023-05-23T16:09:06.769Z,8.82
2023-05-23T16:11:33.542Z,14.23
2023-05-23T16:14:00.289Z,13.50
2023-05-23T16:16:27.416Z,18.13
2023-05-23T16:18:54.116Z,11.00
2023-05-23T16:21:20.922Z,11.10
2023-05-23T16:23:49.044Z,10.63
2023-05-23T16:26:17.191Z,6.45
2023-05-23T16:28:43.960Z,9.23
2023-05-23T16:31:16.927Z,7.13
2023-05-23T16:33:44.355Z,5.75
2023-05-23T16:36:11.002Z,4.55
2023-05-23T16:38:37.579Z,5.35
2023-05-23T16:41:04.200Z,8.52
2023-05-23T16:43:30.789Z,4.63
2023-05-23T16:45:57.393Z,6.75
2023-05-23T16:48:23.989Z,3.97
2023-05-23T16:50:50.656Z,4.63
2023-05-23T16:53:17.266Z,5.05
2023-05-23T16:55:44.177Z,4.72
2023-05-23T16:58:12.237Z,4.97
2023-05-23T17:00:39.536Z,2.88
2023-05-23T17:03:06.275Z,9.02
2023-05-23T17:05:33.889Z,8.75
2023-05-23T17:08:01.311Z,3.03
2023-05-23T17:10:28.031Z,7.63
2023-05-23T17:12:54.670Z,4.85
2023-05-23T17:15:21.249Z,4.95
2023-05-23T17:17:48.160Z,3.45
2023-05-23T17:20:14.765Z,5.28
2023-05-23T17:22:42.296Z,7.30
2023-05-23T17:25:09.237Z,4.88
2023-05-23T17:27:35.732Z,7.28
2023-05-23T17:30:05.127Z,5.40
2023-05-23T17:32:31.776Z,5.15
2023-05-23T17:34:58.530Z,6.78
2023-05-23T17:37:26.418Z,6.10
2023-05-23T17:39:54.610Z,5.78
2023-05-23T17:42:22.762Z,5.95
2023-05-23T17:44:49.280Z,7.00
2023-05-23T17:47:18.131Z,9.23
2023-05-23T17:49:44.790Z,14.50
2023-05-23T17:52:15.015Z,10.30
2023-05-23T17:54:42.003Z,9.73
2023-05-23T17:57:08.677Z,9.68
2023-05-23T17:59:35.688Z,9.85
2023-05-23T18:02:04.842Z,17.33
2023-05-23T18:04:31.545Z,11.90
2023-05-23T18:06:58.355Z,9.50
2023-05-23T18:09:25.041Z,10.38
2023-05-23T18:11:51.861Z,8.95
2023-05-23T18:14:18.500Z,12.45
2023-05-23T18:16:45.167Z,10.57
2023-05-23T18:19:12.188Z,13.65
2023-05-23T18:21:40.899Z,16.30
2023-05-23T18:24:09.140Z,14.65
2023-05-23T18:26:40.114Z,16.17
2023-05-23T18:29:06.650Z,13.80
2023-05-23T18:31:33.169Z,17.17
2023-05-23T18:33:59.749Z,15.73
2023-05-23T18:36:26.705Z,17.13
2023-05-23T18:38:53.264Z,16.85
2023-05-23T18:41:19.866Z,16.52
2023-05-23T18:43:46.494Z,20.20
2023-05-23T18:46:13.131Z,25.67
2023-05-23T18:48:40.715Z,13.40
2023-05-23T18:51:08.387Z,13.32
2023-05-23T18:53:34.922Z,21.83
2023-05-23T18:56:01.469Z,14.52
2023-05-23T18:58:27.957Z,17.23
2023-05-23T19:00:54.474Z,18.98
2023-05-23T19:03:21.264Z,15.30
2023-05-23T19:05:47.921Z,18.25
2023-05-23T19:08:14.948Z,21.58
2023-05-23T19:10:41.867Z,26.17
2023-05-23T19:13:08.632Z,13.52
2023-05-23T19:15:35.434Z,22.27
2023-05-23T19:18:02.284Z,20.08
2023-05-23T19:20:28.892Z,26.98
2023-05-23T19:22:58.815Z,15.75
2023-05-23T19:25:26.081Z,23.00
2023-05-23T19:27:52.873Z,21.08
2023-05-23T19:30:19.749Z,17.00
2023-05-23T19:32:46.790Z,18.52
2023-05-23T19:35:16.554Z,13.75
2023-05-23T19:37:43.559Z,13.07
2023-05-23T19:40:10.625Z,20.85
2023-05-23T19:42:37.189Z,17.50
2023-05-23T19:45:04.140Z,20.40
2023-05-23T19:47:31.082Z,11.98
2023-05-23T19:49:57.719Z,22.05
2023-05-23T19:52:24.368Z,19.33
2023-05-23T19:54:51.555Z,15.63
2023-05-23T19:57:18.137Z,21.73
2023-05-23T19:59:44.636Z,13.60
2023-05-23T20:02:13.744Z,17.38
2023-05-23T20:04:40.817Z,18.33
2023-05-23T20:07:07.365Z,19.80
2023-05-23T20:09:33.846Z,17.00
2023-05-23T20:12:00.437Z,21.77
2023-05-23T20:14:29.117Z,15.70
2023-05-23T20:16:56.078Z,19.52
2023-05-23T20:19:22.594Z,23.77
2023-05-23T20:21:49.509Z,21.52
2023-05-23T20:24:16.238Z,24.48
2023-05-23T20:26:42.881Z,19.83
2023-05-23T20:29:09.409Z,13.57
2023-05-23T20:31:36.134Z,20.13
2023-05-23T20:34:02.685Z,25.38
2023-05-23T20:36:29.512Z,22.77
2023-05-23T20:38:56.100Z,23.40
2023-05-23T20:41:23.362Z,15.07
2023-05-23T20:43:50.148Z,28.73
2023-05-23T20:46:16.682Z,18.90
2023-05-23T20:48:43.825Z,22.00
2023-05-23T20:51:10.442Z,22.40
2023-05-23T20:53:37.080Z,16.27
2023-05-23T20:56:03.976Z,19.95
2023-05-23T20:58:30.795Z,17.75
2023-05-23T21:00:58.514Z,25.10
2023-05-23T21:03:25.175Z,25.30
2023-05-23T21:05:51.894Z,15.32
2023-05-23T21:08:18.505Z,19.15
2023-05-23T21:10:48.729Z,21.15
2023-05-23T21:13:17.370Z,17.83
2023-05-23T21:15:44.087Z,17.05
2023-05-23T21:18:10.856Z,26.42
2023-05-23T21:20:37.485Z,19.33
2023-05-23T21:23:04.169Z,19.08
2023-05-23T21:25:30.671Z,15.73
2023-05-23T21:27:57.284Z,12.50
2023-05-23T21:30:25.108Z,21.73
2023-05-23T21:32:53.082Z,17.42
2023-05-23T21:35:19.760Z,15.75
2023-05-23T21:37:46.354Z,20.45
2023-05-23T21:40:12.866Z,23.15
2023-05-23T21:42:39.373Z,19.00
2023-05-23T21:45:06.554Z,18.23
2023-05-23T21:47:33.075Z,14.18
2023-05-23T21:49:59.628Z,25.55
2023-05-23T21:52:26.206Z,15.20
2023-05-23T21:54:52.728Z,17.88
2023-05-23T21:57:19.195Z,25.40
2023-05-23T21:59:45.689Z,19.85
2023-05-23T22:02:12.316Z,17.80
2023-05-23T22:04:38.904Z,27.33
2023-05-23T22:07:05.585Z,18.08
2023-05-23T22:09:32.214Z,18.50
2023-05-23T22:11:58.759Z,17.50
2023-05-23T22:14:25.437Z,18.48
2023-05-23T22:16:52.277Z,22.50
2023-05-23T22:19:20.028Z,16.70
2023-05-23T22:21:47.317Z,22.88
2023-05-23T22:24:13.979Z,23.52
2023-05-23T22:26:40.630Z,13.95
2023-05-23T22:29:07.224Z,19.75
2023-05-23T22:31:33.811Z,18.23
2023-05-23T22:34:00.345Z,18.15
2023-05-23T22:36:26.846Z,20.83
2023-05-23T22:38:53.522Z,22.88
2023-05-23T22:41:20.178Z,13.32
2023-05-23T22:43:47.004Z,17.90
2023-05-23T22:46:13.826Z,22.05
2023-05-23T22:48:40.406Z,23.45
2023-05-23T22:51:08.231Z,23.38
2023-05-23T22:53:34.978Z,17.52
2023-05-23T22:56:02.461Z,22.40
2023-05-23T22:58:29.073Z,24.13
2023-05-23T23:00:55.858Z,19.90
2023-05-23T23:03:22.764Z,14.93
2023-05-23T23:05:49.533Z,20.90
2023-05-23T23:08:16.687Z,19.75
2023-05-23T23:10:44.345Z,17.88
2023-05-23T23:13:13.603Z,29.27
2023-05-23T23:15:40.547Z,20.27
2023-05-23T23:18:07.703Z,22.15
2023-05-23T23:20:34.649Z,24.73
2023-05-23T23:23:01.313Z,22.30
2023-05-23T23:25:27.887Z,22.45
2023-05-23T23:27:54.471Z,19.20
2023-05-23T23:30:21.382Z,19.38
2023-05-23T23:32:48.239Z,24.52
2023-05-23T23:35:15.340Z,14.98
2023-05-23T23:37:42.098Z,30.05
2023-05-23T23:40:09.916Z,18.23
2023-05-23T23:42:36.589Z,18.27
2023-05-23T23:45:03.766Z,26.83
2023-05-23T23:47:32.202Z,18.67
2023-05-23T23:49:58.911Z,19.65
2023-05-23T23:52:25.981Z,17.70
2023-05-23T23:54:52.598Z,29.73
2023-05-23T23:57:19.133Z,24.75
2023-05-23T23:59:45.661Z,22.70
